Time;durP1;ratioP1;P1;durP2;ratioP2;P2;SDS_P1;SDS_P2;PMS_P1;PMS_P2;Temp;Humidity;BMP_temperature;BMP_pressure;BME280_temperature;BME280_humidity;BME280_pressure;Samples;Min_cycle;Max_cycle;Signal;HPM_P1;HPM_P2
2023/07/06 00:01:01;;;;;;;7.53;5.37;;;13.50;86.30;;;;;;5051730;28;20172;-87
2023/07/06 00:03:27;;;;;;;9.43;5.47;;;13.50;86.10;;;;;;5052939;28;20222;-86
2023/07/06 00:05:52;;;;;;;13.27;6.60;;;13.60;85.90;;;;;;5053226;28;20172;-87
2023/07/06 00:08:18;;;;;;;6.57;5.83;;;13.50;85.70;;;;;;5052935;28;20662;-87
2023/07/06 00:10:45;;;;;;;8.37;6.33;;;13.60;85.50;;;;;;5052929;28;20633;-86
2023/07/06 00:13:12;;;;;;;9.07;6.50;;;13.60;85.30;;;;;;5055889;28;20210;-86
2023/07/06 00:15:38;;;;;;;7.60;5.53;;;13.60;85.40;;;;;;5055567;28;20196;-87
2023/07/06 00:18:04;;;;;;;8.77;5.93;;;13.50;85.50;;;;;;5056848;28;20168;-87
2023/07/06 00:20:32;;;;;;;9.73;6.63;;;13.50;85.40;;;;;;5056901;28;20175;-86
2023/07/06 00:23:00;;;;;;;10.17;6.67;;;13.50;85.10;;;;;;5055619;28;20191;-87
2023/07/06 00:25:26;;;;;;;10.70;5.90;;;13.50;85.30;;;;;;5056226;28;20176;-87
2023/07/06 00:27:54;;;;;;;7.67;5.60;;;13.40;85.80;;;;;;5056820;28;20182;-87
2023/07/06 00:30:40;;;;;;;11.97;5.87;;;13.40;85.70;;;;;;5056768;28;20229;-87
2023/07/06 00:33:07;;;;;;;10.87;6.70;;;13.30;85.60;;;;;;5055420;28;20200;-87
2023/07/06 00:35:34;;;;;;;14.60;6.60;;;13.30;85.60;;;;;;5055308;28;20227;-87
2023/07/06 00:38:00;;;;;;;7.17;6.17;;;13.30;85.50;;;;;;5056562;28;20192;-86
2023/07/06 00:40:32;;;;;;;7.93;6.57;;;13.30;85.80;;;;;;5055251;28;20195;-87
2023/07/06 00:42:59;;;;;;;9.00;6.20;;;13.30;85.60;;;;;;5055205;28;20637;-87
2023/07/06 00:45:25;;;;;;;14.63;7.23;;;13.20;86.00;;;;;;5056398;28;20226;-87
2023/07/06 00:47:59;;;;;;;10.93;5.97;;;13.20;86.00;;;;;;5055988;28;20632;-87
2023/07/06 00:50:28;;;;;;;11.50;6.13;;;13.20;86.20;;;;;;5055129;28;20195;-87
2023/07/06 00:53:02;;;;;;;8.17;6.23;;;13.20;86.20;;;;;;5055020;28;20196;-87
2023/07/06 00:55:33;;;;;;;7.27;5.87;;;13.20;86.30;;;;;;5056264;28;20207;-86
2023/07/06 00:58:07;;;;;;;12.50;6.93;;;13.20;86.30;;;;;;5055044;28;20160;-87
2023/07/06 01:00:37;;;;;;;11.37;6.80;;;13.10;86.50;;;;;;5054955;28;20171;-87
2023/07/06 01:03:06;;;;;;;14.57;6.77;;;13.10;86.80;;;;;;5056074;28;20199;-86
2023/07/06 01:05:32;;;;;;;10.60;6.40;;;13.10;86.60;;;;;;5054857;28;20183;-87
2023/07/06 01:08:05;;;;;;;11.37;5.70;;;13.00;86.50;;;;;;5055927;28;20172;-87
2023/07/06 01:10:33;;;;;;;12.47;6.43;;;13.00;86.90;;;;;;5056020;28;20222;-86
2023/07/06 01:13:00;;;;;;;9.13;6.00;;;13.00;86.90;;;;;;5054962;28;20671;-86
2023/07/06 01:15:31;;;;;;;11.63;6.27;;;12.90;87.30;;;;;;5054614;28;20207;-87
2023/07/06 01:18:21;;;;;;;14.23;6.90;;;12.80;87.70;;;;;;5055983;28;20156;-86
2023/07/06 01:21:02;;;;;;;13.43;6.53;;;12.80;88.00;;;;;;5055781;28;20624;-87
2023/07/06 01:23:57;;;;;;;15.13;6.37;;;12.80;88.00;;;;;;5055328;28;20747;-87
2023/07/06 01:27:00;;;;;;;7.90;5.87;;;12.80;88.10;;;;;;5054518;28;20175;-87
2023/07/06 01:29:48;;;;;;;13.83;6.43;;;12.70;88.40;;;;;;5054413;28;20176;-86
2023/07/06 01:32:18;;;;;;;10.53;6.33;;;12.70;88.60;;;;;;5054391;28;20172;-86
2023/07/06 01:34:53;;;;;;;7.83;5.97;;;12.70;88.70;;;;;;5055960;28;20192;-87
2023/07/06 01:37:30;;;;;;;9.17;6.43;;;12.70;88.70;;;;;;5055360;28;20527;-87
2023/07/06 01:40:00;;;;;;;7.23;5.93;;;12.70;88.70;;;;;;5054239;28;20276;-87
2023/07/06 01:42:34;;;;;;;7.93;6.33;;;12.70;88.70;;;;;;5054116;28;20258;-87
2023/07/06 01:45:16;;;;;;;9.00;6.47;;;12.60;88.70;;;;;;5055432;28;20159;-87
2023/07/06 01:48:05;;;;;;;9.70;6.37;;;12.70;88.80;;;;;;5054086;28;20632;-87
2023/07/06 01:51:06;;;;;;;11.23;6.27;;;12.60;88.80;;;;;;5054051;28;20164;-87
2023/07/06 01:54:00;;;;;;;9.33;6.33;;;12.60;88.80;;;;;;5053748;28;20211;-87
2023/07/06 01:56:34;;;;;;;8.53;5.97;;;12.60;88.90;;;;;;5055174;28;20160;-87
2023/07/06 01:59:03;;;;;;;11.53;7.07;;;12.50;89.10;;;;;;5053861;28;20188;-87
2023/07/06 02:01:35;;;;;;;12.67;6.33;;;12.50;89.20;;;;;;5054974;28;20164;-86
2023/07/06 02:04:03;;;;;;;7.87;5.87;;;12.50;89.20;;;;;;5053721;28;20199;-86
2023/07/06 02:06:29;;;;;;;11.80;6.17;;;12.50;89.30;;;;;;5053755;28;20657;-87
2023/07/06 02:08:56;;;;;;;12.30;6.50;;;12.60;89.20;;;;;;5053667;28;20183;-86
2023/07/06 02:11:25;;;;;;;6.70;6.10;;;12.60;89.20;;;;;;5053609;28;20651;-86
2023/07/06 02:13:51;;;;;;;13.07;5.90;;;12.70;89.00;;;;;;5053533;28;20703;-86
2023/07/06 02:16:17;;;;;;;10.13;5.93;;;12.70;89.10;;;;;;5053364;28;20208;-86
2023/07/06 02:18:43;;;;;;;9.17;6.17;;;12.80;89.10;;;;;;5053446;28;20272;-86
2023/07/06 02:21:09;;;;;;;7.50;5.63;;;12.70;89.10;;;;;;5053642;28;20657;-86
2023/07/06 02:23:34;;;;;;;11.60;5.80;;;12.70;89.30;;;;;;5053410;28;20542;-86
2023/07/06 02:26:00;;;;;;;7.07;6.13;;;12.80;89.20;;;;;;5054631;28;20182;-86
2023/07/06 02:28:25;;;;;;;14.37;6.27;;;12.70;89.10;;;;;;5053321;28;20175;-87
2023/07/06 02:30:54;;;;;;;9.60;6.43;;;12.70;89.10;;;;;;5053678;28;20249;-86
2023/07/06 02:33:21;;;;;;;8.37;6.20;;;12.70;89.20;;;;;;5052972;28;20196;-86
2023/07/06 02:35:46;;;;;;;13.03;6.70;;;12.70;89.00;;;;;;5052374;28;20196;-86
2023/07/06 02:38:16;;;;;;;12.60;6.37;;;12.70;89.10;;;;;;5053092;28;20183;-86
2023/07/06 02:40:42;;;;;;;9.70;6.00;;;12.70;89.30;;;;;;5053053;28;20191;-86
2023/07/06 02:43:07;;;;;;;11.77;6.40;;;12.60;89.50;;;;;;5054116;28;20663;-86
2023/07/06 02:45:34;;;;;;;7.10;5.13;;;12.60;89.60;;;;;;5054272;28;20255;-86
2023/07/06 02:47:59;;;;;;;11.03;6.30;;;12.50;89.50;;;;;;5053013;28;20176;-87
2023/07/06 02:50:26;;;;;;;10.20;6.87;;;12.60;89.30;;;;;;5052972;28;20180;-86
2023/07/06 02:52:51;;;;;;;20.23;8.47;;;12.60;89.10;;;;;;5053144;28;20199;-86
2023/07/06 02:55:17;;;;;;;9.50;6.27;;;12.60;89.10;;;;;;5053931;28;20208;-86
2023/07/06 02:57:43;;;;;;;16.67;6.90;;;12.50;89.30;;;;;;5052805;28;20179;-87
2023/07/06 03:00:13;;;;;;;12.00;6.60;;;12.60;89.10;;;;;;5052665;28;20179;-86
2023/07/06 03:02:39;;;;;;;12.80;7.07;;;12.40;89.10;;;;;;5053867;28;20152;-86
2023/07/06 03:05:05;;;;;;;8.37;6.83;;;12.40;89.30;;;;;;5052594;28;20186;-87
2023/07/06 03:07:34;;;;;;;11.93;6.27;;;12.40;89.30;;;;;;5053863;28;20210;-86
2023/07/06 03:10:01;;;;;;;12.00;6.20;;;12.40;89.40;;;;;;5052785;28;20584;-86
2023/07/06 03:12:30;;;;;;;12.77;6.87;;;12.30;89.60;;;;;;5052435;28;20258;-88
2023/07/06 03:14:57;;;;;;;8.50;6.87;;;12.30;89.50;;;;;;5052336;28;20207;-86
2023/07/06 03:17:22;;;;;;;10.27;6.73;;;12.30;89.50;;;;;;5053621;28;20271;-86
2023/07/06 03:19:48;;;;;;;8.97;6.50;;;12.30;89.60;;;;;;5052346;28;20651;-87
2023/07/06 03:22:14;;;;;;;12.90;6.93;;;12.40;90.00;;;;;;5053154;28;20183;-86
2023/07/06 03:24:40;;;;;;;16.70;7.50;;;12.30;90.00;;;;;;5052212;28;20228;-86
2023/07/06 03:27:06;;;;;;;12.00;6.70;;;12.30;90.10;;;;;;5053474;28;20246;-87
2023/07/06 03:29:35;;;;;;;8.63;6.67;;;12.20;90.20;;;;;;5052177;28;20184;-87
2023/07/06 03:32:01;;;;;;;8.77;6.63;;;12.20;90.50;;;;;;5053340;28;20176;-87
2023/07/06 03:34:27;;;;;;;10.50;7.57;;;12.10;90.70;;;;;;5052079;28;20208;-86
2023/07/06 03:36:52;;;;;;;11.30;7.83;;;12.20;90.80;;;;;;5052412;28;20168;-86
2023/07/06 03:39:18;;;;;;;13.90;10.20;;;12.20;90.80;;;;;;5053309;28;20187;-87
2023/07/06 03:41:43;;;;;;;13.03;11.17;;;12.20;90.90;;;;;;5051949;28;20167;-87
2023/07/06 03:44:09;;;;;;;13.67;10.33;;;12.20;90.80;;;;;;5053087;28;20211;-87
2023/07/06 03:46:36;;;;;;;13.33;10.63;;;12.30;90.80;;;;;;5051774;28;20215;-87
2023/07/06 03:49:04;;;;;;;12.27;10.67;;;12.30;90.80;;;;;;5052695;28;20632;-86
2023/07/06 03:51:33;;;;;;;11.63;7.33;;;12.30;90.60;;;;;;5051865;28;20172;-86
2023/07/06 03:53:58;;;;;;;13.40;7.93;;;12.30;90.70;;;;;;5051566;28;20219;-86
2023/07/06 03:56:27;;;;;;;13.77;7.73;;;12.30;90.80;;;;;;5053226;28;20273;-87
2023/07/06 03:58:56;;;;;;;14.30;8.47;;;12.30;90.70;;;;;;5052662;28;20186;-87
2023/07/06 04:01:22;;;;;;;17.27;8.97;;;12.30;90.90;;;;;;5053077;28;20180;-87
2023/07/06 04:03:47;;;;;;;15.37;10.03;;;12.30;90.90;;;;;;5052959;28;20243;-87
2023/07/06 04:06:13;;;;;;;13.43;8.70;;;12.30;90.90;;;;;;5051827;28;20531;-86
2023/07/06 04:08:39;;;;;;;14.27;9.00;;;12.30;90.80;;;;;;5051833;28;20211;-87
2023/07/06 04:11:04;;;;;;;16.73;8.90;;;12.30;90.90;;;;;;5051841;28;20187;-87
2023/07/06 04:13:30;;;;;;;16.57;8.90;;;12.30;90.90;;;;;;5051766;28;20238;-86
2023/07/06 04:15:55;;;;;;;23.93;9.37;;;12.30;91.10;;;;;;5051561;28;20211;-87
2023/07/06 04:18:21;;;;;;;11.20;8.20;;;12.30;91.30;;;;;;5051638;28;20198;-86
2023/07/06 04:20:52;;;;;;;12.13;8.30;;;12.30;91.40;;;;;;5052929;28;20199;-86
2023/07/06 04:23:18;;;;;;;14.33;10.13;;;12.30;91.40;;;;;;5051852;28;20667;-86
2023/07/06 04:25:43;;;;;;;19.63;11.80;;;12.30;91.40;;;;;;5052839;28;20306;-87
2023/07/06 04:28:14;;;;;;;13.23;9.07;;;12.30;91.50;;;;;;5051528;28;20314;-87
2023/07/06 04:30:45;;;;;;;12.97;9.33;;;12.30;91.60;;;;;;5052866;28;20168;-86
2023/07/06 04:33:16;;;;;;;12.47;9.37;;;12.30;91.70;;;;;;5052273;28;20207;-86
2023/07/06 04:35:41;;;;;;;13.63;10.53;;;12.20;91.90;;;;;;5051471;28;20295;-87
2023/07/06 04:38:08;;;;;;;21.73;11.23;;;12.20;91.90;;;;;;5052780;28;20247;-87
2023/07/06 04:40:34;;;;;;;12.57;9.73;;;12.20;91.90;;;;;;5052982;28;20164;-87
2023/07/06 04:42:59;;;;;;;16.50;10.27;;;12.20;92.00;;;;;;5051398;28;20188;-87
2023/07/06 04:45:26;;;;;;;15.27;10.23;;;12.30;92.00;;;;;;5052470;28;20187;-87
2023/07/06 04:47:53;;;;;;;18.73;9.90;;;12.30;92.20;;;;;;5051391;28;20208;-87
2023/07/06 04:50:23;;;;;;;14.67;10.37;;;12.40;92.20;;;;;;5052896;28;20168;-87
2023/07/06 04:52:53;;;;;;;22.70;10.67;;;12.50;92.10;;;;;;5052737;28;20196;-86
2023/07/06 04:55:22;;;;;;;16.60;11.03;;;12.70;91.90;;;;;;5051109;28;20208;-87
2023/07/06 04:57:50;;;;;;;15.03;10.77;;;12.80;91.50;;;;;;5053432;28;20172;-86
2023/07/06 05:00:18;;;;;;;15.80;10.27;;;12.90;91.40;;;;;;5054956;28;20651;-87
2023/07/06 05:02:45;;;;;;;16.00;11.00;;;13.00;91.40;;;;;;5054947;28;20168;-87
2023/07/06 05:05:12;;;;;;;19.87;12.10;;;13.10;91.40;;;;;;5055802;28;20206;-87
2023/07/06 05:07:39;;;;;;;21.97;10.73;;;13.20;91.30;;;;;;5054948;28;20172;-86
2023/07/06 05:10:05;;;;;;;11.93;9.83;;;13.20;91.00;;;;;;5054919;28;20640;-87
2023/07/06 05:12:31;;;;;;;14.00;10.60;;;13.40;90.90;;;;;;5055608;28;20176;-87
2023/07/06 05:14:56;;;;;;;18.30;9.83;;;13.50;90.60;;;;;;5054688;28;20200;-86
2023/07/06 05:17:22;;;;;;;13.17;10.60;;;13.60;90.40;;;;;;5054768;28;20174;-86
2023/07/06 05:19:48;;;;;;;17.73;9.87;;;13.60;90.30;;;;;;5054669;28;20701;-87
2023/07/06 05:22:18;;;;;;;15.97;9.83;;;13.70;90.00;;;;;;5054614;28;20179;-86
2023/07/06 05:24:48;;;;;;;16.30;10.70;;;13.80;90.10;;;;;;5054492;28;20195;-87
2023/07/06 05:27:14;;;;;;;11.00;9.63;;;13.80;89.40;;;;;;5054666;28;20202;-86
2023/07/06 05:29:40;;;;;;;14.27;10.50;;;14.00;89.00;;;;;;5055771;28;20172;-87
2023/07/06 05:32:07;;;;;;;14.53;10.37;;;14.10;88.60;;;;;;5055805;28;20200;-87
2023/07/06 05:34:33;;;;;;;13.40;10.37;;;14.30;88.50;;;;;;5054176;28;20215;-87
2023/07/06 05:36:59;;;;;;;11.23;10.13;;;14.30;88.30;;;;;;5054757;28;20175;-87
2023/07/06 05:39:24;;;;;;;11.07;9.87;;;14.50;88.00;;;;;;5054281;28;20202;-86
2023/07/06 05:41:50;;;;;;;12.63;10.33;;;14.50;87.70;;;;;;5054132;28;20523;-86
2023/07/06 05:44:16;;;;;;;14.13;10.03;;;14.60;87.80;;;;;;5054047;28;20196;-87
2023/07/06 05:46:42;;;;;;;11.33;10.20;;;14.70;87.80;;;;;;5054331;28;20179;-87
2023/07/06 05:49:07;;;;;;;12.77;10.47;;;14.80;87.70;;;;;;5055705;28;20172;-87
2023/07/06 05:51:33;;;;;;;12.23;11.03;;;14.80;87.30;;;;;;5054053;28;20194;-87
2023/07/06 05:53:58;;;;;;;13.30;9.97;;;14.70;87.30;;;;;;5053772;28;20211;-87
2023/07/06 05:56:25;;;;;;;13.43;10.67;;;14.70;87.50;;;;;;5053939;28;20602;-87
2023/07/06 05:58:51;;;;;;;12.30;10.38;;;14.50;87.60;;;;;;5054285;28;20180;-87
2023/07/06 06:01:18;;;;;;;14.17;11.03;;;14.40;87.80;;;;;;5053921;28;20176;-87
2023/07/06 06:03:45;;;;;;;15.73;11.27;;;14.30;87.90;;;;;;5053854;28;20557;-87
2023/07/06 06:06:11;;;;;;;13.83;11.30;;;14.20;87.90;;;;;;5054943;28;20200;-87
2023/07/06 06:08:38;;;;;;;12.73;11.47;;;14.20;87.90;;;;;;5054068;28;20218;-87
2023/07/06 06:11:03;;;;;;;13.50;11.30;;;14.20;88.20;;;;;;5054816;28;20176;-87
2023/07/06 06:13:30;;;;;;;15.10;11.73;;;14.30;88.10;;;;;;5054688;28;20203;-87
2023/07/06 06:15:56;;;;;;;12.27;10.90;;;14.40;88.00;;;;;;5055066;28;20200;-87
2023/07/06 06:18:22;;;;;;;16.93;11.40;;;14.60;88.00;;;;;;5054417;28;20263;-87
2023/07/06 06:20:48;;;;;;;17.87;10.83;;;14.40;87.10;;;;;;5053866;28;20666;-87
2023/07/06 06:23:15;;;;;;;13.47;11.00;;;14.70;87.90;;;;;;5053331;28;20196;-86
2023/07/06 06:25:41;;;;;;;12.13;9.73;;;14.70;87.00;;;;;;5053670;28;20180;-87
2023/07/06 06:28:09;;;;;;;15.03;9.87;;;14.80;86.90;;;;;;5053613;28;20183;-86
2023/07/06 06:30:35;;;;;;;18.93;9.10;;;14.80;87.10;;;;;;5054016;28;20179;-86
2023/07/06 06:33:01;;;;;;;14.03;10.33;;;14.90;86.60;;;;;;5053364;28;20230;-86
2023/07/06 06:35:28;;;;;;;12.33;9.93;;;15.00;86.50;;;;;;5053254;28;20204;-87
2023/07/06 06:37:57;;;;;;;15.50;10.60;;;15.00;86.00;;;;;;5054651;28;20168;-87
2023/07/06 06:40:23;;;;;;;13.05;10.25;;;15.10;86.00;;;;;;5054405;28;20172;-87
2023/07/06 06:42:49;;;;;;;12.15;9.65;;;15.20;86.30;;;;;;5053090;28;20200;-87
2023/07/06 06:45:19;;;;;;;15.90;11.07;;;15.20;85.50;;;;;;5054559;28;20666;-88
2023/07/06 06:47:45;;;;;;;11.98;10.40;;;15.30;85.10;;;;;;5054589;28;20183;-88
2023/07/06 06:50:14;;;;;;;11.18;10.07;;;15.40;85.10;;;;;;5052967;28;20183;-87
2023/07/06 06:52:40;;;;;;;13.65;10.10;;;15.50;84.80;;;;;;5052883;28;20180;-87
2023/07/06 06:55:06;;;;;;;11.32;10.32;;;15.60;84.40;;;;;;5053768;28;20687;-87
2023/07/06 06:57:32;;;;;;;11.68;10.50;;;15.60;82.60;;;;;;5053039;28;20255;-87
2023/07/06 06:59:59;;;;;;;12.10;10.75;;;15.70;83.50;;;;;;5054020;28;20176;-87
2023/07/06 07:02:25;;;;;;;12.55;11.35;;;15.80;83.10;;;;;;5053032;28;20237;-87
2023/07/06 07:04:50;;;;;;;11.50;10.30;;;15.90;82.10;;;;;;5053866;28;20675;-87
2023/07/06 07:07:17;;;;;;;12.27;10.90;;;16.00;82.90;;;;;;5052727;28;20189;-87
2023/07/06 07:09:44;;;;;;;11.32;10.07;;;16.10;82.40;;;;;;5053546;28;20254;-86
2023/07/06 07:12:10;;;;;;;14.40;10.10;;;16.20;82.50;;;;;;5053923;28;20172;-88
2023/07/06 07:14:37;;;;;;;12.23;11.05;;;16.30;82.10;;;;;;5053569;28;20200;-87
2023/07/06 07:17:04;;;;;;;14.23;10.43;;;16.30;81.30;;;;;;5052466;28;20306;-88
2023/07/06 07:19:30;;;;;;;13.25;11.18;;;16.50;81.70;;;;;;5052821;28;20198;-87
2023/07/06 07:22:00;;;;;;;12.80;11.70;;;16.60;80.90;;;;;;5052035;28;20643;-87
2023/07/06 07:24:26;;;;;;;12.15;11.13;;;16.60;79.60;;;;;;5052988;28;20218;-88
2023/07/06 07:26:51;;;;;;;12.95;11.68;;;16.50;79.50;;;;;;5052503;28;20172;-88
2023/07/06 07:29:17;;;;;;;13.50;12.30;;;16.60;79.40;;;;;;5052604;28;20172;-88
2023/07/06 07:31:43;;;;;;;14.75;11.38;;;16.60;79.70;;;;;;5052404;28;20591;-89
2023/07/06 07:34:09;;;;;;;13.30;11.70;;;16.80;80.00;;;;;;5053431;28;20207;-88
2023/07/06 07:36:35;;;;;;;13.10;11.82;;;16.80;78.80;;;;;;5052542;28;20179;-87
2023/07/06 07:39:01;;;;;;;13.23;12.02;;;16.90;78.30;;;;;;5052589;28;20186;-89
2023/07/06 07:41:26;;;;;;;12.40;11.13;;;17.10;78.50;;;;;;5053821;28;20693;-89
2023/07/06 07:43:52;;;;;;;13.15;12.05;;;17.20;78.40;;;;;;5053274;28;20209;-89
2023/07/06 07:46:19;;;;;;;12.95;11.63;;;17.20;76.70;;;;;;5052696;28;20179;-89
2023/07/06 07:48:47;;;;;;;15.63;12.38;;;17.10;75.90;;;;;;5052589;28;20278;-89
2023/07/06 07:51:19;;;;;;;13.32;12.05;;;17.10;76.20;;;;;;5052925;28;20176;-88
2023/07/06 07:53:44;;;;;;;13.68;12.40;;;17.20;75.60;;;;;;5053185;28;20211;-88
2023/07/06 07:56:12;;;;;;;14.93;12.73;;;17.30;75.20;;;;;;5051922;28;20208;-88
2023/07/06 07:58:39;;;;;;;14.00;13.00;;;17.40;74.50;;;;;;5053165;28;20246;-89
2023/07/06 08:01:08;;;;;;;13.75;12.45;;;17.40;74.40;;;;;;5052989;28;20247;-89
2023/07/06 08:03:36;;;;;;;18.27;16.50;;;17.50;74.10;;;;;;5052159;28;20743;-87
2023/07/06 08:06:05;;;;;;;18.95;17.45;;;17.50;75.20;;;;;;5053301;28;20172;-86
2023/07/06 08:08:32;;;;;;;25.23;23.15;;;17.90;76.50;;;;;;5051792;28;20183;-87
2023/07/06 08:11:04;;;;;;;23.73;22.02;;;17.80;72.30;;;;;;5051723;28;20175;-87
2023/07/06 08:13:30;;;;;;;24.42;22.38;;;17.80;73.10;;;;;;5051851;28;20290;-88
2023/07/06 08:15:56;;;;;;;24.08;21.88;;;17.80;73.70;;;;;;5051973;28;20246;-87
2023/07/06 08:18:24;;;;;;;23.33;21.65;;;17.90;72.20;;;;;;5053367;28;20172;-88
2023/07/06 08:20:53;;;;;;;23.40;21.73;;;18.00;72.80;;;;;;5051801;28;20180;-88
2023/07/06 08:23:23;;;;;;;23.70;22.15;;;18.30;72.80;;;;;;5051846;28;20245;-88
2023/07/06 08:25:51;;;;;;;19.48;17.98;;;18.20;70.70;;;;;;5053083;28;20176;-88
2023/07/06 08:28:20;;;;;;;18.67;17.25;;;18.30;72.10;;;;;;5051774;28;20226;-87
2023/07/06 08:30:48;;;;;;;22.00;20.45;;;18.30;72.90;;;;;;5053062;28;20607;-88
2023/07/06 08:33:15;;;;;;;21.38;19.67;;;18.30;69.50;;;;;;5055574;28;20192;-88
2023/07/06 08:35:45;;;;;;;14.70;13.60;;;18.60;69.10;;;;;;5055813;28;20254;-87
2023/07/06 08:38:12;;;;;;;14.48;13.30;;;18.30;69.40;;;;;;5056239;28;20271;-87
2023/07/06 08:40:40;;;;;;;13.23;12.25;;;18.50;70.50;;;;;;5055554;28;20168;-88
2023/07/06 08:43:13;;;;;;;15.05;13.68;;;18.40;69.00;;;;;;5056986;28;20203;-87
2023/07/06 08:45:41;;;;;;;13.77;12.73;;;18.20;69.60;;;;;;5056740;28;20171;-87
2023/07/06 08:48:14;;;;;;;14.07;12.98;;;18.50;70.70;;;;;;5056780;28;20200;-87
2023/07/06 08:50:44;;;;;;;15.10;14.05;;;18.70;69.80;;;;;;5055434;28;20294;-87
2023/07/06 08:53:14;;;;;;;16.67;15.45;;;18.80;68.00;;;;;;5055184;28;20223;-88
2023/07/06 08:55:44;;;;;;;17.05;15.75;;;19.00;65.40;;;;;;5056595;28;20266;-88
2023/07/06 08:58:16;;;;;;;15.68;14.57;;;19.10;65.50;;;;;;5055706;28;20245;-87
2023/07/06 09:00:42;;;;;;;15.75;14.45;;;19.10;67.10;;;;;;5056734;28;20222;-88
2023/07/06 09:03:09;;;;;;;16.52;15.30;;;18.70;67.70;;;;;;5056009;28;20192;-88
2023/07/06 09:05:38;;;;;;;15.27;13.98;;;18.30;68.10;;;;;;5055838;28;20599;-87
2023/07/06 09:08:04;;;;;;;16.27;15.15;;;18.00;69.80;;;;;;5056468;28;20647;-87
2023/07/06 09:10:30;;;;;;;16.30;15.00;;;18.10;67.80;;;;;;5056164;28;20225;-88
2023/07/06 09:13:19;;;;;;;15.43;14.43;;;18.30;67.30;;;;;;5054844;28;20195;-88
2023/07/06 09:15:48;;;;;;;15.93;14.73;;;18.50;67.90;;;;;;5054750;28;20357;-88
2023/07/06 09:18:15;;;;;;;16.88;15.50;;;18.50;66.60;;;;;;5054721;28;20303;-88
2023/07/06 09:20:44;;;;;;;17.92;16.58;;;18.20;67.30;;;;;;5055972;28;20225;-87
2023/07/06 09:23:13;;;;;;;16.75;15.50;;;17.90;66.00;;;;;;5054692;28;20637;-88
2023/07/06 09:25:45;;;;;;;15.93;14.93;;;17.80;66.30;;;;;;5054614;28;20168;-88
2023/07/06 09:28:18;;;;;;;15.50;14.40;;;17.80;67.90;;;;;;5055394;28;20172;-88
2023/07/06 09:30:45;;;;;;;15.80;14.68;;;17.70;68.20;;;;;;5054527;28;20168;-88
2023/07/06 09:33:20;;;;;;;15.95;14.73;;;17.50;67.40;;;;;;5054679;28;20196;-88
2023/07/06 09:35:53;;;;;;;14.88;13.85;;;17.60;67.80;;;;;;5054366;28;20199;-88
2023/07/06 09:38:19;;;;;;;15.77;13.88;;;17.70;68.50;;;;;;5054324;28;20168;-88
2023/07/06 09:40:46;;;;;;;14.88;13.68;;;17.70;68.30;;;;;;5055551;28;20294;-88
2023/07/06 09:43:27;;;;;;;15.02;13.77;;;17.80;69.30;;;;;;5053567;28;20199;-88
2023/07/06 09:45:53;;;;;;;15.23;14.15;;;17.80;69.40;;;;;;5054262;28;20183;-88
2023/07/06 09:48:29;;;;;;;15.18;14.18;;;17.80;68.10;;;;;;5055449;28;20168;-88
2023/07/06 09:51:06;;;;;;;15.18;13.82;;;17.80;69.10;;;;;;5054112;28;20569;-88
2023/07/06 09:53:50;;;;;;;15.07;14.10;;;18.00;68.10;;;;;;5053812;28;20750;-88
2023/07/06 09:56:16;;;;;;;15.95;14.90;;;17.90;66.70;;;;;;5055444;28;20721;-88
2023/07/06 09:58:45;;;;;;;15.90;14.65;;;17.90;65.40;;;;;;5054012;28;20173;-88
2023/07/06 10:01:24;;;;;;;15.95;14.80;;;17.90;67.50;;;;;;5054039;28;20168;-88
2023/07/06 10:04:05;;;;;;;15.48;14.27;;;17.80;66.70;;;;;;5053854;28;20192;-88
2023/07/06 10:06:53;;;;;;;16.23;15.00;;;17.90;67.90;;;;;;5054326;28;20256;-88
2023/07/06 10:09:27;;;;;;;18.10;16.80;;;18.00;67.00;;;;;;5053882;28;20198;-88
2023/07/06 10:11:56;;;;;;;20.30;18.88;;;18.20;67.20;;;;;;5053875;28;20543;-88
2023/07/06 10:14:39;;;;;;;19.95;18.55;;;18.20;64.50;;;;;;5053847;28;20687;-88
2023/07/06 10:17:34;;;;;;;19.80;18.50;;;18.30;65.90;;;;;;5053710;28;20552;-88
2023/07/06 10:20:21;;;;;;;20.33;19.02;;;18.20;65.40;;;;;;5052817;28;20207;-88
2023/07/06 10:23:10;;;;;;;19.85;18.42;;;18.20;66.00;;;;;;5054685;28;20196;-88
2023/07/06 10:25:56;;;;;;;20.17;18.60;;;18.30;66.30;;;;;;5054365;28;20168;-88
2023/07/06 10:28:30;;;;;;;20.50;18.90;;;18.30;66.50;;;;;;5053337;28;20554;-88
2023/07/06 10:30:58;;;;;;;20.42;19.13;;;18.30;65.60;;;;;;5053530;28;20179;-88
2023/07/06 10:33:30;;;;;;;20.27;19.00;;;18.30;65.90;;;;;;5053329;28;20196;-88
2023/07/06 10:35:58;;;;;;;18.90;17.70;;;18.20;67.50;;;;;;5053268;28;20199;-88
2023/07/06 10:38:24;;;;;;;20.20;18.70;;;18.20;68.10;;;;;;5053352;28;20176;-88
2023/07/06 10:41:11;;;;;;;19.20;17.90;;;18.20;67.70;;;;;;5053138;28;20198;-88
2023/07/06 10:43:40;;;;;;;19.50;18.02;;;18.40;68.60;;;;;;5053007;28;20230;-88
2023/07/06 10:46:35;;;;;;;19.13;17.63;;;18.70;68.30;;;;;;5053324;28;20175;-88
2023/07/06 10:49:19;;;;;;;20.73;19.13;;;19.30;68.10;;;;;;5053407;28;20227;-88
2023/07/06 10:51:50;;;;;;;20.45;18.70;;;19.90;64.40;;;;;;5053448;28;20172;-89
2023/07/06 10:54:30;;;;;;;21.20;19.55;;;20.00;62.50;;;;;;5054260;28;20283;-88
2023/07/06 10:57:00;;;;;;;20.33;18.90;;;19.90;62.90;;;;;;5052547;28;20175;-89
2023/07/06 10:59:36;;;;;;;21.23;19.80;;;19.90;63.90;;;;;;5052941;28;20171;-88
2023/07/06 11:02:19;;;;;;;20.70;19.30;;;19.60;62.60;;;;;;5053093;28;20255;-88
2023/07/06 11:05:24;;;;;;;22.00;20.27;;;19.60;63.00;;;;;;5052814;28;20200;-89
2023/07/06 11:07:52;;;;;;;21.73;20.13;;;19.80;62.30;;;;;;5053081;28;20697;-89
2023/07/06 11:10:21;;;;;;;20.70;19.00;;;20.20;58.90;;;;;;5052675;28;20179;-89
2023/07/06 11:12:57;;;;;;;20.27;18.55;;;20.40;58.70;;;;;;5052624;28;20212;-90
2023/07/06 11:15:50;;;;;;;20.38;19.00;;;20.30;58.80;;;;;;5052784;28;20195;-89
2023/07/06 11:18:34;;;;;;;19.83;18.60;;;20.10;59.70;;;;;;5053449;28;20172;-89
2023/07/06 11:21:18;;;;;;;20.13;18.73;;;20.10;57.50;;;;;;5053861;28;20164;-89
2023/07/06 11:23:45;;;;;;;20.98;19.15;;;20.30;61.20;;;;;;5052654;28;20206;-90
2023/07/06 11:26:43;;;;;;;15.57;14.38;;;19.70;60.70;;;;;;5052392;28;20547;-89
2023/07/06 11:29:10;;;;;;;16.65;15.35;;;19.40;61.20;;;;;;5038901;28;20599;-89
2023/07/06 11:31:48;;;;;;;17.67;15.00;;;19.40;62.80;;;;;;5053458;28;20179;-87
2023/07/06 11:34:22;;;;;;;16.23;15.00;;;19.50;64.00;;;;;;5053722;28;20276;-87
2023/07/06 11:37:02;;;;;;;15.95;14.63;;;19.50;64.00;;;;;;5052314;28;20172;-87
2023/07/06 11:39:54;;;;;;;16.60;15.30;;;19.60;63.60;;;;;;5053106;28;20579;-87
2023/07/06 11:42:40;;;;;;;16.02;14.95;;;19.60;63.90;;;;;;5053395;28;20156;-89
2023/07/06 11:45:19;;;;;;;16.85;15.60;;;19.50;64.60;;;;;;5044858;28;20279;-87
2023/07/06 11:48:17;;;;;;;15.48;14.32;;;19.40;64.90;;;;;;5052936;28;20168;-88
2023/07/06 11:50:43;;;;;;;15.77;14.68;;;19.40;65.10;;;;;;5053336;28;20605;-87
2023/07/06 11:56:19;;;;;;;16.67;15.15;;;19.30;65.00;;;;;;5053404;28;20268;-87
2023/07/06 11:58:57;;;;;;;16.20;14.93;;;19.30;65.60;;;;;;5053304;28;20183;-87
2023/07/06 12:04:10;;;;;;;15.45;14.38;;;19.80;63.90;;;;;;5053319;28;20194;-89
2023/07/06 12:06:35;;;;;;;14.88;13.77;;;20.00;63.40;;;;;;5051700;28;20168;-89
2023/07/06 12:09:02;;;;;;;15.73;14.07;;;19.90;61.20;;;;;;5053230;28;20233;-87
2023/07/06 12:11:28;;;;;;;14.93;13.93;;;19.80;62.10;;;;;;5052025;28;20176;-87
2023/07/06 12:13:58;;;;;;;15.80;14.70;;;20.20;61.80;;;;;;5051958;28;20191;-87
2023/07/06 12:16:28;;;;;;;15.77;14.57;;;20.70;63.70;;;;;;5052531;28;20200;-87
2023/07/06 12:19:06;;;;;;;16.17;14.90;;;20.90;60.90;;;;;;5052025;28;20191;-89
2023/07/06 12:21:35;;;;;;;16.00;14.80;;;21.20;59.80;;;;;;5052966;28;20148;-89
2023/07/06 12:24:03;;;;;;;15.20;14.20;;;21.50;61.70;;;;;;5051702;28;20195;-89
2023/07/06 12:26:30;;;;;;;16.05;14.57;;;21.90;58.30;;;;;;5051760;28;20212;-89
2023/07/06 12:28:57;;;;;;;15.55;14.13;;;21.70;58.60;;;;;;5052576;28;20184;-89
2023/07/06 12:31:25;;;;;;;15.07;13.88;;;22.00;59.90;;;;;;5053888;28;20183;-89
2023/07/06 12:33:57;;;;;;;15.07;13.95;;;22.10;58.20;;;;;;5051602;28;20196;-89
2023/07/06 12:36:33;;;;;;;16.77;15.30;;;22.20;58.40;;;;;;5051583;28;20574;-87
2023/07/06 12:39:01;;;;;;;14.70;13.52;;;21.90;59.50;;;;;;5051589;28;20251;-88
2023/07/06 12:41:32;;;;;;;15.02;13.77;;;21.80;57.50;;;;;;5051537;28;20167;-87
2023/07/06 12:43:59;;;;;;;15.10;13.65;;;21.80;57.80;;;;;;5052787;28;20184;-88
2023/07/06 12:46:30;;;;;;;15.07;13.50;;;21.40;58.60;;;;;;5053121;28;20191;-88
2023/07/06 12:49:01;;;;;;;14.25;13.00;;;21.20;59.00;;;;;;5051633;28;20636;-88
2023/07/06 12:51:28;;;;;;;14.88;13.45;;;21.00;60.40;;;;;;5051608;28;20259;-88